Time;durP1;ratioP1;P1;durP2;ratioP2;P2;SDS_P1;SDS_P2;PMS_P1;PMS_P2;Temp;Humidity;BMP_temperature;BMP_pressure;BME280_temperature;BME280_humidity;BME280_pressure;Samples;Min_cycle;Max_cycle;Signal;HPM_P1;HPM_P2
2023/10/16 00:02:28;;;;;;;2.53;0.90;;;6.20;99.90;;;;;;5230449;28;20451;-47
2023/10/16 00:05:08;;;;;;;4.23;1.57;;;6.20;99.90;;;;;;5227085;28;20185;-48
2023/10/16 00:07:39;;;;;;;2.30;1.20;;;6.20;99.90;;;;;;5246538;28;20202;-50
2023/10/16 00:10:11;;;;;;;5.50;1.00;;;6.10;99.90;;;;;;5227449;28;20983;-49
2023/10/16 00:12:42;;;;;;;3.30;1.37;;;6.00;99.90;;;;;;5249479;28;20206;-48
2023/10/16 00:15:16;;;;;;;3.07;1.20;;;6.00;99.90;;;;;;5224446;28;20463;-48
2023/10/16 00:17:49;;;;;;;4.90;1.07;;;6.00;99.90;;;;;;5240310;28;20613;-48
2023/10/16 00:20:24;;;;;;;1.33;1.17;;;6.00;99.90;;;;;;5226007;28;20436;-47
2023/10/16 00:22:55;;;;;;;1.53;0.80;;;6.00;99.90;;;;;;5227798;28;20432;-47
2023/10/16 00:25:29;;;;;;;2.97;1.33;;;5.90;99.90;;;;;;5243462;28;20538;-47
2023/10/16 00:28:01;;;;;;;5.57;1.63;;;5.90;99.90;;;;;;5241978;28;20434;-48
2023/10/16 00:30:32;;;;;;;1.30;1.20;;;5.90;99.90;;;;;;5249555;28;20785;-49
2023/10/16 00:33:04;;;;;;;0.93;0.87;;;5.80;99.90;;;;;;5248086;28;20456;-49
2023/10/16 00:35:35;;;;;;;2.20;1.10;;;5.80;99.90;;;;;;5229762;28;20658;-45
2023/10/16 00:38:13;;;;;;;3.70;0.90;;;5.90;99.90;;;;;;5245063;28;20435;-48
2023/10/16 00:43:35;;;;;;;4.60;1.07;;;6.00;99.90;;;;;;5245138;28;20469;-47
2023/10/16 00:46:09;;;;;;;3.80;0.70;;;5.90;99.90;;;;;;5230849;28;20468;-48
2023/10/16 00:48:39;;;;;;;3.53;0.80;;;6.00;99.90;;;;;;5247309;28;20260;-47
2023/10/16 00:51:13;;;;;;;4.30;1.10;;;5.90;99.90;;;;;;5232227;28;20492;-47
2023/10/16 00:53:47;;;;;;;3.67;0.93;;;5.80;99.90;;;;;;5225751;28;20198;-47
2023/10/16 00:56:18;;;;;;;0.83;0.63;;;5.80;99.90;;;;;;5225441;28;20816;-48
2023/10/16 00:58:48;;;;;;;1.90;0.83;;;5.80;99.90;;;;;;5225466;28;20815;-48
2023/10/16 01:01:19;;;;;;;2.73;0.90;;;5.80;99.90;;;;;;5228080;28;20435;-48
2023/10/16 01:03:50;;;;;;;3.70;1.00;;;5.80;99.90;;;;;;5235977;28;20257;-49
2023/10/16 01:06:41;;;;;;;1.53;1.17;;;5.80;99.90;;;;;;5228296;28;20249;-46
2023/10/16 01:09:24;;;;;;;8.33;1.23;;;5.70;99.90;;;;;;5229897;28;20719;-47
2023/10/16 01:11:57;;;;;;;4.40;1.10;;;5.80;99.90;;;;;;5226870;28;20435;-47
2023/10/16 01:14:29;;;;;;;2.93;1.13;;;5.80;99.90;;;;;;5227474;28;20524;-47
2023/10/16 01:17:00;;;;;;;7.30;1.23;;;5.80;99.90;;;;;;5244992;28;20558;-48
2023/10/16 01:19:31;;;;;;;2.23;0.97;;;5.90;99.90;;;;;;5243831;28;20512;-48
2023/10/16 01:22:02;;;;;;;3.60;0.93;;;5.80;99.90;;;;;;5229612;28;20932;-47
2023/10/16 01:24:32;;;;;;;2.67;1.30;;;5.80;99.90;;;;;;5248053;28;20189;-47
2023/10/16 01:27:48;;;;;;;1.90;1.40;;;5.70;99.90;;;;;;5225506;28;20214;-48
2023/10/16 01:29:54;;;;;;;1.03;0.93;;;5.70;99.90;;;;;;5228844;28;20186;-47
2023/10/16 01:32:25;;;;;;;9.50;1.10;;;5.80;99.90;;;;;;5224520;28;20430;-48
2023/10/16 01:34:56;;;;;;;0.67;0.67;;;5.70;99.90;;;;;;5246256;28;20503;-48
2023/10/16 01:37:27;;;;;;;2.63;1.17;;;5.70;99.90;;;;;;5230090;28;20221;-47
2023/10/16 01:40:15;;;;;;;8.63;1.80;;;5.80;99.90;;;;;;5227545;28;20197;-47
2023/10/16 01:42:46;;;;;;;4.33;1.00;;;5.70;99.90;;;;;;5228586;28;20436;-49
2023/10/16 01:45:19;;;;;;;7.73;1.17;;;5.70;99.90;;;;;;5225253;28;20520;-47
2023/10/16 01:47:50;;;;;;;9.77;1.87;;;5.70;99.90;;;;;;5214698;28;20182;-48
2023/10/16 01:50:21;;;;;;;2.83;1.27;;;5.70;99.90;;;;;;5232333;28;20443;-48
2023/10/16 01:52:54;;;;;;;1.83;1.07;;;5.70;99.90;;;;;;5252708;28;20463;-47
2023/10/16 01:55:28;;;;;;;3.63;1.20;;;5.70;99.90;;;;;;5234626;28;20193;-48
2023/10/16 01:57:59;;;;;;;3.17;1.13;;;5.60;99.90;;;;;;5230744;28;21021;-48
2023/10/16 02:00:34;;;;;;;3.60;0.93;;;5.60;99.90;;;;;;5231617;28;20436;-47
2023/10/16 02:03:08;;;;;;;7.40;1.40;;;5.60;99.90;;;;;;5230747;28;20192;-48
2023/10/16 02:05:41;;;;;;;3.07;1.33;;;5.60;99.90;;;;;;5249366;28;20509;-47
2023/10/16 02:08:13;;;;;;;11.77;1.30;;;5.60;99.90;;;;;;5249891;28;20432;-47
2023/10/16 02:10:44;;;;;;;1.20;0.97;;;5.60;99.90;;;;;;5228095;28;20442;-47
2023/10/16 02:13:15;;;;;;;2.33;0.93;;;5.60;99.90;;;;;;5230244;28;20827;-46
2023/10/16 02:15:47;;;;;;;5.60;1.63;;;5.50;99.90;;;;;;5244494;28;20750;-47
2023/10/16 02:18:27;;;;;;;6.73;0.90;;;5.50;99.90;;;;;;5249524;28;20284;-47
2023/10/16 02:20:58;;;;;;;2.80;1.00;;;5.40;99.90;;;;;;5230253;28;20427;-46
2023/10/16 02:23:30;;;;;;;7.10;1.33;;;5.50;99.90;;;;;;5245575;28;20432;-50
2023/10/16 02:26:05;;;;;;;9.17;1.37;;;5.50;99.90;;;;;;5229014;28;20959;-48
2023/10/16 02:28:40;;;;;;;1.97;1.10;;;5.50;99.90;;;;;;5227014;28;20497;-47
2023/10/16 02:31:17;;;;;;;13.50;1.40;;;5.50;99.90;;;;;;5233867;28;20432;-47
2023/10/16 02:33:55;;;;;;;2.93;1.30;;;5.50;99.90;;;;;;5233539;28;20484;-49
2023/10/16 02:36:26;;;;;;;2.83;1.30;;;5.50;99.90;;;;;;5247002;28;20504;-47
2023/10/16 02:38:57;;;;;;;4.47;1.20;;;5.50;99.90;;;;;;5249912;28;20948;-46
2023/10/16 02:41:28;;;;;;;1.47;1.37;;;5.40;99.90;;;;;;5248639;28;20182;-47
2023/10/16 02:43:59;;;;;;;3.13;1.40;;;5.40;99.90;;;;;;5247678;28;20202;-47
2023/10/16 02:46:30;;;;;;;1.53;1.40;;;5.40;99.90;;;;;;5229704;28;21067;-47
2023/10/16 02:49:01;;;;;;;3.63;1.47;;;5.40;99.90;;;;;;5228161;28;20451;-49
2023/10/16 02:51:31;;;;;;;6.83;1.53;;;5.40;99.90;;;;;;5226009;28;20431;-47
2023/10/16 02:54:06;;;;;;;5.10;1.40;;;5.30;99.90;;;;;;5251598;28;20230;-46
2023/10/16 02:56:37;;;;;;;6.93;2.00;;;5.30;99.90;;;;;;5245108;28;20193;-48
2023/10/16 02:59:08;;;;;;;1.40;1.30;;;5.30;99.90;;;;;;5250188;28;20443;-47
2023/10/16 03:01:40;;;;;;;3.77;1.57;;;5.30;99.90;;;;;;5227904;28;20170;-48
2023/10/16 03:04:15;;;;;;;5.00;1.33;;;5.20;99.90;;;;;;5230848;28;20512;-47
2023/10/16 03:06:48;;;;;;;1.23;1.03;;;5.30;99.90;;;;;;5225529;28;20463;-48
2023/10/16 03:09:31;;;;;;;1.80;1.43;;;5.30;99.90;;;;;;5227971;28;20440;-47
2023/10/16 03:12:04;;;;;;;3.23;1.00;;;5.20;99.90;;;;;;5246995;28;20461;-47
2023/10/16 03:17:35;;;;;;;3.17;1.17;;;5.10;99.90;;;;;;5224490;28;20495;-47
2023/10/16 03:20:19;;;;;;;2.50;1.20;;;5.10;99.90;;;;;;5225942;28;20483;-46
2023/10/16 03:22:50;;;;;;;1.10;1.00;;;5.10;99.90;;;;;;5229302;28;20454;-47
2023/10/16 03:28:21;;;;;;;3.80;1.70;;;5.10;99.90;;;;;;5224042;28;20445;-47
2023/10/16 03:30:52;;;;;;;9.07;1.07;;;5.10;99.90;;;;;;5247063;28;20453;-47
2023/10/16 03:33:25;;;;;;;1.40;1.30;;;5.10;99.90;;;;;;5230580;28;20982;-46
2023/10/16 03:35:57;;;;;;;8.00;1.53;;;5.00;99.90;;;;;;5226580;28;20212;-48
2023/10/16 03:38:35;;;;;;;2.80;1.40;;;5.10;99.90;;;;;;5245901;28;20539;-47
2023/10/16 03:41:31;;;;;;;11.10;1.60;;;5.00;99.90;;;;;;5228490;28;20445;-46
2023/10/16 03:44:15;;;;;;;1.30;1.20;;;5.10;99.90;;;;;;5246541;28;20477;-47
2023/10/16 03:46:47;;;;;;;2.80;1.03;;;5.00;99.90;;;;;;5247087;28;20465;-46
2023/10/16 03:49:18;;;;;;;2.47;1.47;;;5.10;99.90;;;;;;5210171;28;21059;-47
2023/10/16 03:51:50;;;;;;;1.73;1.30;;;5.10;99.90;;;;;;5246776;28;20479;-46
2023/10/16 03:54:30;;;;;;;5.70;1.60;;;5.00;99.90;;;;;;5228793;28;20218;-48
2023/10/16 03:57:09;;;;;;;4.27;1.53;;;4.90;99.90;;;;;;5247314;28;20948;-47
2023/10/16 03:59:42;;;;;;;3.43;1.20;;;5.00;99.90;;;;;;5229762;28;20971;-46
2023/10/16 04:02:23;;;;;;;2.20;0.97;;;5.00;99.90;;;;;;5227001;28;20526;-47
2023/10/16 04:04:54;;;;;;;1.10;0.87;;;5.00;99.90;;;;;;5230913;28;20793;-47
2023/10/16 04:07:25;;;;;;;3.23;0.97;;;5.00;99.90;;;;;;5233262;28;20836;-49
2023/10/16 04:10:11;;;;;;;6.40;1.03;;;5.00;99.90;;;;;;5226443;28;20462;-49
2023/10/16 04:12:51;;;;;;;1.70;1.27;;;5.00;99.90;;;;;;5245352;28;20212;-47
2023/10/16 04:31:58;;;;;;;3.80;1.43;;;5.00;99.90;;;;;;5246028;28;21019;-47
2023/10/16 04:53:14;;;;;;;7.97;2.00;;;4.90;99.90;;;;;;5248372;28;20468;-47
2023/10/16 05:11:36;;;;;;;3.03;1.50;;;4.80;99.90;;;;;;5245138;28;20447;-47
2023/10/16 05:19:46;;;;;;;6.70;1.97;;;4.80;99.90;;;;;;5231410;28;20833;-47
2023/10/16 06:16:20;;;;;;;4.50;1.60;;;5.80;99.90;;;;;;5249879;28;21070;-47
2023/10/16 06:18:53;;;;;;;8.10;2.60;;;5.90;99.90;;;;;;5233562;28;20415;-47
2023/10/16 06:21:25;;;;;;;2.77;1.57;;;6.00;99.90;;;;;;5244074;28;20516;-46
2023/10/16 06:23:56;;;;;;;4.20;1.43;;;6.10;99.90;;;;;;5252291;28;20428;-46
2023/10/16 06:26:27;;;;;;;8.77;1.73;;;6.30;99.90;;;;;;5227483;28;20475;-48
2023/10/16 06:29:01;;;;;;;2.63;1.57;;;7.00;99.90;;;;;;5226889;28;20182;-47
2023/10/16 06:31:49;;;;;;;4.53;1.70;;;8.30;99.90;;;;;;5223915;28;20248;-48
2023/10/16 06:34:23;;;;;;;1.90;1.57;;;9.00;99.90;;;;;;5239869;28;20472;-48
2023/10/16 06:36:55;;;;;;;3.37;2.20;;;10.00;99.90;;;;;;5226863;28;20461;-50
2023/10/16 06:39:29;;;;;;;4.33;1.50;;;11.50;99.90;;;;;;5206581;28;20455;-50
2023/10/16 06:42:02;;;;;;;4.80;1.77;;;12.90;99.90;;;;;;5222964;28;20525;-47
2023/10/16 06:44:34;;;;;;;12.83;1.60;;;14.00;99.90;;;;;;5238586;28;20456;-50
2023/10/16 06:47:04;;;;;;;4.00;1.37;;;14.60;96.50;;;;;;5236274;28;20465;-48
2023/10/16 06:49:35;;;;;;;3.03;1.47;;;15.20;95.00;;;;;;5224228;28;20448;-49
2023/10/16 06:52:12;;;;;;;4.93;2.13;;;15.70;91.20;;;;;;5223056;28;20302;-48
2023/10/16 06:54:44;;;;;;;11.47;4.70;;;15.50;89.30;;;;;;5243894;28;20244;-51
2023/10/16 06:57:15;;;;;;;5.30;1.70;;;15.60;86.40;;;;;;5225603;28;20542;-49
2023/10/16 06:59:45;;;;;;;2.70;1.80;;;16.00;84.10;;;;;;5244965;28;21094;-49
2023/10/16 07:02:19;;;;;;;1.40;1.30;;;16.50;82.10;;;;;;5241423;28;20673;-49
2023/10/16 07:04:50;;;;;;;1.73;1.50;;;16.60;78.60;;;;;;5240113;28;20639;-49
2023/10/16 07:07:22;;;;;;;11.97;2.40;;;16.20;76.70;;;;;;5226406;28;21397;-49
2023/10/16 07:09:54;;;;;;;2.33;1.37;;;15.50;76.60;;;;;;5250012;28;20432;-49
2023/10/16 07:12:25;;;;;;;4.33;1.83;;;15.40;78.40;;;;;;5226827;28;20448;-49
2023/10/16 07:14:56;;;;;;;1.90;1.43;;;15.30;79.50;;;;;;5226976;28;21028;-49
2023/10/16 07:17:28;;;;;;;6.67;1.50;;;16.30;77.50;;;;;;5240887;28;20198;-49
2023/10/16 07:20:17;;;;;;;5.20;1.60;;;16.30;74.80;;;;;;5222614;28;20206;-50
2023/10/16 07:22:48;;;;;;;4.30;1.80;;;15.60;75.50;;;;;;5241034;28;20433;-49
2023/10/16 07:25:25;;;;;;;1.93;1.60;;;14.50;78.90;;;;;;5242391;28;20445;-51
2023/10/16 07:27:58;;;;;;;7.30;3.07;;;13.30;82.30;;;;;;5245829;28;20196;-50
2023/10/16 07:30:28;;;;;;;3.90;1.77;;;12.20;88.30;;;;;;5242692;28;20444;-50
2023/10/16 07:32:59;;;;;;;2.23;2.07;;;11.30;92.20;;;;;;5241186;28;20477;-50
2023/10/16 07:35:30;;;;;;;3.03;1.53;;;10.60;96.70;;;;;;5228590;28;20222;-50
2023/10/16 07:38:00;;;;;;;12.30;3.73;;;10.00;99.90;;;;;;5225869;28;20534;-49
2023/10/16 07:40:33;;;;;;;3.83;2.40;;;9.70;99.90;;;;;;5244027;28;20179;-49
2023/10/16 07:43:05;;;;;;;2.40;1.80;;;9.50;99.90;;;;;;5245368;28;20205;-49
2023/10/16 07:45:37;;;;;;;8.23;2.10;;;9.50;99.90;;;;;;5225856;28;20640;-49
2023/10/16 07:48:08;;;;;;;8.87;2.67;;;9.60;99.90;;;;;;5228249;28;20862;-49
2023/10/16 07:50:41;;;;;;;4.70;1.93;;;9.50;99.90;;;;;;5243181;28;20486;-49
2023/10/16 07:53:17;;;;;;;6.43;2.50;;;9.50;99.90;;;;;;5246178;28;20595;-48
2023/10/16 07:55:53;;;;;;;4.33;2.47;;;9.50;99.90;;;;;;5225288;28;20547;-50
2023/10/16 07:58:24;;;;;;;2.93;1.70;;;9.40;99.90;;;;;;5253867;28;20416;-48
2023/10/16 08:03:37;;;;;;;5.00;2.27;;;9.50;99.90;;;;;;5245577;28;20186;-48
2023/10/16 08:06:17;;;;;;;3.50;2.40;;;9.60;99.90;;;;;;5228600;28;20452;-48
2023/10/16 08:08:48;;;;;;;9.73;2.27;;;9.50;99.90;;;;;;5249567;28;20955;-49
2023/10/16 08:11:19;;;;;;;12.30;2.17;;;9.40;99.90;;;;;;5227104;28;20527;-50
2023/10/16 08:13:52;;;;;;;1.70;1.60;;;9.40;99.90;;;;;;5229138;28;20878;-49
2023/10/16 08:16:24;;;;;;;2.03;1.73;;;9.50;99.90;;;;;;5244739;28;20681;-48
2023/10/16 08:18:57;;;;;;;16.63;1.47;;;9.40;99.90;;;;;;5227076;28;20437;-48
2023/10/16 08:21:28;;;;;;;2.20;1.33;;;9.20;99.90;;;;;;5246886;28;20440;-49
2023/10/16 08:23:59;;;;;;;3.50;1.23;;;9.10;99.90;;;;;;5225586;28;20499;-48
2023/10/16 08:26:30;;;;;;;7.23;1.90;;;9.20;99.90;;;;;;5248549;28;20484;-50
2023/10/16 08:32:27;;;;;;;4.00;2.27;;;9.50;99.90;;;;;;5235680;28;20495;-50
2023/10/16 08:34:40;;;;;;;2.73;1.90;;;9.80;99.90;;;;;;5246417;28;20495;-48
2023/10/16 08:37:13;;;;;;;6.93;2.00;;;9.90;99.90;;;;;;5248981;28;20472;-49
2023/10/16 08:39:49;;;;;;;7.07;1.90;;;9.90;99.90;;;;;;5245362;28;20447;-49
2023/10/16 08:42:21;;;;;;;2.50;1.20;;;10.00;99.90;;;;;;5225974;28;20531;-49
2023/10/16 08:44:51;;;;;;;6.53;2.03;;;10.00;99.90;;;;;;5220012;28;20457;-49
2023/10/16 08:47:25;;;;;;;14.37;2.20;;;9.80;99.90;;;;;;5250304;28;20455;-49
2023/10/16 08:49:56;;;;;;;7.20;1.53;;;9.60;99.90;;;;;;5242722;28;20274;-49
2023/10/16 08:52:33;;;;;;;5.13;1.40;;;9.40;99.90;;;;;;5230145;28;20558;-50
2023/10/16 08:55:26;;;;;;;4.30;1.67;;;9.50;99.90;;;;;;5225914;28;20194;-50
2023/10/16 08:57:56;;;;;;;6.60;1.93;;;9.30;99.90;;;;;;5248525;28;20424;-50
2023/10/16 09:00:30;;;;;;;1.80;1.70;;;9.20;99.90;;;;;;5247900;28;20435;-48
2023/10/16 09:03:04;;;;;;;6.60;1.53;;;9.40;99.90;;;;;;5238103;28;20179;-50
2023/10/16 09:05:35;;;;;;;2.93;1.20;;;9.30;99.90;;;;;;5246865;28;20448;-50
2023/10/16 09:08:06;;;;;;;1.80;1.43;;;9.40;99.90;;;;;;5238655;28;20486;-47
2023/10/16 09:10:40;;;;;;;4.10;1.80;;;9.60;99.90;;;;;;5230824;28;20182;-50
2023/10/16 09:13:14;;;;;;;1.63;1.33;;;10.00;99.90;;;;;;5229951;28;20206;-49
2023/10/16 09:15:47;;;;;;;3.40;1.30;;;10.40;99.90;;;;;;5249433;28;20459;-49
2023/10/16 09:18:18;;;;;;;8.33;4.80;;;10.80;99.90;;;;;;5215695;28;20432;-48
2023/10/16 09:20:49;;;;;;;2.20;2.00;;;11.20;99.90;;;;;;5248710;28;20486;-50
2023/10/16 09:23:23;;;;;;;4.90;1.93;;;10.90;99.90;;;;;;5230047;28;20182;-50
2023/10/16 09:25:56;;;;;;;5.40;2.03;;;10.50;99.90;;;;;;5245141;28;21068;-50
2023/10/16 09:28:30;;;;;;;3.30;1.40;;;10.30;99.90;;;;;;5234017;28;20425;-48
2023/10/16 09:31:06;;;;;;;4.07;1.83;;;10.20;99.90;;;;;;5252893;28;20514;-51
2023/10/16 09:33:37;;;;;;;5.80;1.67;;;10.30;99.90;;;;;;5229771;28;20455;-48
2023/10/16 09:36:20;;;;;;;4.10;1.83;;;10.40;99.90;;;;;;5254192;28;20505;-48
2023/10/16 09:38:51;;;;;;;7.67;1.47;;;10.40;99.90;;;;;;5227290;28;20183;-48
2023/10/16 09:44:06;;;;;;;2.67;1.60;;;10.80;99.90;;;;;;5250554;28;20515;-48
2023/10/16 09:49:21;;;;;;;1.47;1.30;;;11.30;99.90;;;;;;5251600;28;20434;-50
2023/10/16 09:52:04;;;;;;;4.37;1.93;;;11.60;99.90;;;;;;5226166;28;20441;-50
2023/10/16 09:54:35;;;;;;;3.27;1.17;;;11.60;99.90;;;;;;5230263;28;20474;-49
2023/10/16 09:57:09;;;;;;;6.77;1.50;;;11.50;99.90;;;;;;5236119;28;20460;-47
2023/10/16 09:59:41;;;;;;;1.50;1.20;;;11.60;99.90;;;;;;5231562;28;20486;-50
2023/10/16 10:02:18;;;;;;;0.83;0.80;;;11.50;99.90;;;;;;5229740;28;20420;-49
2023/10/16 10:05:08;;;;;;;3.80;1.30;;;11.60;99.90;;;;;;5229081;28;20428;-51
2023/10/16 10:07:48;;;;;;;6.83;2.03;;;11.90;99.90;;;;;;5251460;28;20440;-48
2023/10/16 10:13:13;;;;;;;3.37;3.03;;;12.30;99.90;;;;;;5249982;28;20563;-48
2023/10/16 10:15:48;;;;;;;4.17;2.03;;;12.60;99.90;;;;;;5248093;28;20449;-50
2023/10/16 10:18:42;;;;;;;2.37;2.20;;;12.80;99.90;;;;;;5250662;28;20873;-49
2023/10/16 10:21:27;;;;;;;3.07;1.60;;;13.00;99.90;;;;;;5228558;28;20489;-50
2023/10/16 10:24:03;;;;;;;1.33;0.87;;;12.80;99.90;;;;;;5247530;28;20940;-49
2023/10/16 10:26:35;;;;;;;2.27;1.10;;;12.50;99.90;;;;;;5224643;28;20534;-49
2023/10/16 10:29:11;;;;;;;3.37;1.43;;;12.10;99.90;;;;;;5247361;28;20535;-50
2023/10/16 10:31:46;;;;;;;3.53;1.53;;;11.60;99.90;;;;;;5248003;28;20416;-49
2023/10/16 10:34:23;;;;;;;4.13;1.53;;;11.10;99.90;;;;;;5226002;28;20466;-49
2023/10/16 10:36:54;;;;;;;2.80;1.53;;;10.70;99.90;;;;;;5248749;28;20461;-48
2023/10/16 10:39:36;;;;;;;3.03;1.17;;;10.60;99.90;;;;;;5226828;28;20437;-51
2023/10/16 10:42:16;;;;;;;5.40;1.80;;;10.40;99.90;;;;;;5224474;28;20198;-47
2023/10/16 10:44:55;;;;;;;9.53;4.33;;;10.40;99.90;;;;;;5224330;28;20510;-49
2023/10/16 10:47:32;;;;;;;4.87;2.17;;;10.40;99.90;;;;;;5220952;28;20507;-48
2023/10/16 10:50:13;;;;;;;4.97;1.73;;;10.60;99.90;;;;;;5231115;28;20849;-49
2023/10/16 10:52:50;;;;;;;6.07;2.00;;;10.70;99.90;;;;;;5249796;28;20962;-49
2023/10/16 10:55:25;;;;;;;3.60;3.30;;;11.30;99.90;;;;;;5224060;28;20972;-49
2023/10/16 10:58:00;;;;;;;3.73;1.30;;;11.60;99.90;;;;;;5227075;28;20456;-49
2023/10/16 11:05:33;;;;;;;6.73;2.53;;;12.00;99.90;;;;;;5249646;28;20213;-48
2023/10/16 11:10:44;;;;;;;3.70;1.67;;;12.30;99.90;;;;;;5247532;28;20463;-48
2023/10/16 11:13:17;;;;;;;10.27;5.57;;;12.40;99.90;;;;;;5246907;28;20954;-49
2023/10/16 11:15:52;;;;;;;35.80;16.83;;;12.50;99.80;;;;;;5249969;28;20495;-50
2023/10/16 11:18:28;;;;;;;33.03;17.40;;;12.40;99.40;;;;;;5225496;28;20530;-51
2023/10/16 11:21:07;;;;;;;14.50;4.87;;;12.10;99.60;;;;;;5224870;28;20936;-49
2023/10/16 11:23:42;;;;;;;4.70;1.50;;;11.80;99.90;;;;;;5223782;28;20917;-49
2023/10/16 11:26:16;;;;;;;9.80;2.60;;;11.50;99.90;;;;;;5224590;28;20457;-48
2023/10/16 11:28:49;;;;;;;3.40;1.40;;;11.40;99.90;;;;;;5252392;28;20475;-51
2023/10/16 11:31:21;;;;;;;12.70;4.10;;;11.30;99.90;;;;;;5253057;28;20423;-48
2023/10/16 11:34:03;;;;;;;6.23;2.53;;;11.40;99.90;;;;;;5222148;28;20540;-49
2023/10/16 11:36:36;;;;;;;16.30;7.33;;;11.70;99.90;;;;;;5245770;28;20523;-49
2023/10/16 11:39:07;;;;;;;7.37;3.57;;;12.00;99.90;;;;;;5245267;28;20417;-49
2023/10/16 11:41:40;;;;;;;3.17;1.93;;;12.30;99.90;;;;;;5244948;28;20447;-48
2023/10/16 11:44:15;;;;;;;1.10;1.10;;;12.60;99.90;;;;;;5245827;28;20451;-48
2023/10/16 11:46:46;;;;;;;4.23;1.67;;;12.60;99.90;;;;;;5229164;28;20455;-48
2023/10/16 11:51:51;;;;;;;1.77;1.23;;;12.60;99.20;;;;;;5245812;28;20535;-48
2023/10/16 11:54:25;;;;;;;9.97;1.47;;;12.50;99.60;;;;;;5242850;28;20209;-50
2023/10/16 11:56:59;;;;;;;3.07;1.00;;;12.50;99.50;;;;;;5224430;28;20715;-50
2023/10/16 11:59:30;;;;;;;2.90;1.67;;;12.30;99.40;;;;;;5226480;28;20516;-49
2023/10/16 12:02:10;;;;;;;14.43;5.30;;;12.20;99.60;;;;;;5223911;28;20525;-49
2023/10/16 12:04:42;;;;;;;4.33;1.87;;;11.90;99.80;;;;;;5244627;28;20646;-50
2023/10/16 12:07:15;;;;;;;14.27;1.90;;;11.70;99.90;;;;;;5222213;28;20452;-48
2023/10/16 12:09:51;;;;;;;8.17;3.50;;;11.60;99.90;;;;;;5223327;28;20502;-49
2023/10/16 12:12:24;;;;;;;2.40;2.30;;;11.70;99.90;;;;;;5245279;28;20443;-47
2023/10/16 12:14:56;;;;;;;4.63;1.00;;;11.90;99.90;;;;;;5221448;28;20489;-47
2023/10/16 12:17:28;;;;;;;18.80;9.83;;;11.90;99.60;;;;;;5240871;28;20475;-48
2023/10/16 12:19:58;;;;;;;15.27;6.70;;;11.70;99.90;;;;;;5246286;28;20459;-49
2023/10/16 12:22:30;;;;;;;5.60;2.30;;;11.80;99.90;;;;;;5244710;28;20409;-49
2023/10/16 12:25:00;;;;;;;17.73;7.20;;;12.00;99.90;;;;;;5227007;28;20185;-49
2023/10/16 12:27:31;;;;;;;4.40;3.30;;;12.00;99.20;;;;;;5222321;28;20818;-48
2023/10/16 12:30:03;;;;;;;4.10;1.40;;;12.10;99.20;;;;;;5228892;28;20228;-48
2023/10/16 12:32:34;;;;;;;4.40;2.07;;;12.10;99.00;;;;;;5238478;28;20643;-48
2023/10/16 12:35:09;;;;;;;5.60;2.23;;;12.20;98.80;;;;;;5247211;28;20466;-49
2023/10/16 12:37:40;;;;;;;3.20;1.83;;;12.30;98.80;;;;;;5245592;28;20344;-50
2023/10/16 12:40:59;;;;;;;2.30;1.40;;;12.30;98.10;;;;;;5224362;28;20432;-50
2023/10/16 12:43:05;;;;;;;3.43;1.70;;;12.10;98.30;;;;;;5234637;28;20968;-51
2023/10/16 12:45:39;;;;;;;1.63;1.53;;;12.10;98.60;;;;;;5241093;28;20486;-50
2023/10/16 12:48:10;;;;;;;6.67;1.90;;;12.00;98.40;;;;;;5224461;28;20441;-49
2023/10/16 12:50:40;;;;;;;1.47;0.87;;;12.10;98.70;;;;;;5242574;28;20486;-50
2023/10/16 12:53:11;;;;;;;2.97;1.57;;;12.00;98.60;;;;;;5224543;28;20198;-50
2023/10/16 12:55:49;;;;;;;8.40;3.17;;;11.90;98.90;;;;;;5241009;28;20689;-48
2023/10/16 12:58:19;;;;;;;7.03;1.03;;;11.80;99.10;;;;;;5247059;28;20188;-50
2023/10/16 13:00:50;;;;;;;2.93;0.90;;;11.80;99.10;;;;;;5217532;28;20942;-51
2023/10/16 13:03:22;;;;;;;2.60;1.17;;;11.70;99.20;;;;;;5245639;28;20592;-50
2023/10/16 13:05:53;;;;;;;1.00;0.93;;;11.70;99.60;;;;;;5227118;28;21002;-50
2023/10/16 13:08:24;;;;;;;1.43;1.17;;;11.60;99.80;;;;;;5245898;28;20436;-49
2023/10/16 13:10:55;;;;;;;1.67;1.00;;;11.60;99.80;;;;;;5246156;28;20413;-50
2023/10/16 13:13:26;;;;;;;4.67;1.60;;;11.70;99.70;;;;;;5227392;28;20460;-50
2023/10/16 13:15:58;;;;;;;6.37;1.60;;;11.70;99.40;;;;;;5244483;28;20533;-48
2023/10/16 13:18:28;;;;;;;22.03;9.07;;;11.80;99.10;;;;;;5228572;28;20535;-50
2023/10/16 13:21:23;;;;;;;1.83;1.73;;;11.90;98.80;;;;;;5220629;28;20437;-51
2023/10/16 13:23:52;;;;;;;9.83;1.83;;;12.00;98.80;;;;;;5243291;28;20221;-50
2023/10/16 13:26:24;;;;;;;3.23;1.20;;;12.00;98.60;;;;;;5225443;28;20461;-51
2023/10/16 13:28:55;;;;;;;1.47;1.23;;;11.90;98.40;;;;;;5246098;28;20468;-50
2023/10/16 13:31:25;;;;;;;5.40;1.63;;;12.00;98.50;;;;;;5224235;28;20182;-49
2023/10/16 13:33:56;;;;;;;5.07;1.40;;;12.10;98.40;;;;;;5234008;28;20279;-49
2023/10/16 13:36:28;;;;;;;2.43;1.60;;;12.00;98.40;;;;;;5244741;28;20206;-51
2023/10/16 13:38:59;;;;;;;4.10;1.37;;;12.00;98.40;;;;;;5246467;28;20181;-49
2023/10/16 13:41:29;;;;;;;52.77;24.73;;;12.00;98.30;;;;;;5246127;28;20436;-50
2023/10/16 13:44:00;;;;;;;18.43;8.80;;;11.90;98.60;;;;;;5211487;28;20197;-50
2023/10/16 13:46:30;;;;;;;1.47;1.33;;;11.90;98.70;;;;;;5246720;28;20202;-48
2023/10/16 13:49:01;;;;;;;2.77;1.13;;;11.90;98.70;;;;;;5236965;28;20177;-48
2023/10/16 13:51:35;;;;;;;3.40;1.90;;;11.90;99.00;;;;;;5228578;28;20186;-48
2023/10/16 13:54:11;;;;;;;3.77;1.70;;;12.00;98.90;;;;;;5213127;28;20329;-49
2023/10/16 13:56:43;;;;;;;2.83;1.67;;;12.10;98.10;;;;;;5249197;28;20452;-54
2023/10/16 13:59:15;;;;;;;1.03;0.87;;;12.00;98.10;;;;;;5229862;28;20408;-48
2023/10/16 14:01:46;;;;;;;1.80;0.90;;;11.90;98.00;;;;;;5231465;28;20420;-48
2023/10/16 14:04:16;;;;;;;2.20;0.90;;;11.80;98.40;;;;;;5248154;28;20963;-50
2023/10/16 14:06:54;;;;;;;8.43;1.33;;;11.70;98.70;;;;;;5254136;28;20526;-49
2023/10/16 14:09:27;;;;;;;1.50;1.13;;;11.60;99.00;;;;;;5250136;28;20178;-48
2023/10/16 14:12:00;;;;;;;1.10;1.10;;;11.50;99.40;;;;;;5226767;28;20433;-49
2023/10/16 14:14:33;;;;;;;2.73;2.20;;;11.60;99.50;;;;;;5246340;28;20472;-48
2023/10/16 14:17:03;;;;;;;6.87;1.23;;;11.50;99.60;;;;;;5249231;28;20948;-50
2023/10/16 14:19:35;;;;;;;8.03;1.50;;;11.60;99.50;;;;;;5244028;28;20494;-50
2023/10/16 14:22:06;;;;;;;3.60;1.37;;;11.60;99.40;;;;;;5238230;28;20187;-50
2023/10/16 14:24:37;;;;;;;2.20;1.67;;;11.50;99.40;;;;;;5227712;28;20441;-50
2023/10/16 14:27:07;;;;;;;7.27;4.17;;;11.40;99.30;;;;;;5227425;28;21007;-50
2023/10/16 14:29:44;;;;;;;3.77;1.53;;;11.30;99.50;;;;;;5248106;28;20311;-49
2023/10/16 14:32:15;;;;;;;4.13;1.70;;;11.30;99.70;;;;;;5248733;28;20269;-50
2023/10/16 14:34:46;;;;;;;1.70;1.00;;;11.40;99.90;;;;;;5248881;28;20551;-50
2023/10/16 14:37:16;;;;;;;0.83;0.63;;;11.30;99.90;;;;;;5229802;28;20205;-48
2023/10/16 14:39:51;;;;;;;1.53;0.90;;;11.30;99.90;;;;;;5247685;28;20189;-50
2023/10/16 14:42:22;;;;;;;3.10;1.57;;;11.10;99.90;;;;;;5244292;28;20188;-50
2023/10/16 14:44:54;;;;;;;1.20;1.10;;;11.10;99.90;;;;;;5245524;28;20453;-49
2023/10/16 14:47:25;;;;;;;3.27;1.50;;;11.10;99.90;;;;;;5247108;28;20558;-49
2023/10/16 14:49:56;;;;;;;4.00;1.43;;;11.20;99.90;;;;;;5230279;28;20436;-49
2023/10/16 14:52:26;;;;;;;1.37;0.80;;;11.10;99.90;;;;;;5220119;28;20578;-50
2023/10/16 14:54:57;;;;;;;2.43;1.20;;;11.00;99.90;;;;;;5247145;28;20300;-50
2023/10/16 14:57:27;;;;;;;3.60;1.90;;;11.10;99.90;;;;;;5221411;28;20240;-50
2023/10/16 14:59:58;;;;;;;3.93;1.17;;;11.10;99.90;;;;;;5244245;28;20679;-49
2023/10/16 15:02:29;;;;;;;0.90;0.80;;;11.10;99.90;;;;;;5227976;28;20274;-50
2023/10/16 15:04:59;;;;;;;6.37;1.30;;;11.10;99.90;;;;;;5226922;28;20187;-50
2023/10/16 15:07:30;;;;;;;2.67;1.23;;;11.00;99.90;;;;;;5244859;28;20571;-50
2023/10/16 15:10:02;;;;;;;3.33;1.10;;;10.90;99.90;;;;;;5230763;28;20190;-49
2023/10/16 15:12:33;;;;;;;2.53;1.20;;;10.80;99.90;;;;;;5249820;28;20535;-51
2023/10/16 15:15:08;;;;;;;1.60;1.30;;;10.60;99.90;;;;;;5242644;28;20464;-50
2023/10/16 15:17:39;;;;;;;6.77;1.17;;;10.40;99.90;;;;;;5195641;28;20615;-50
2023/10/16 15:20:13;;;;;;;2.53;2.33;;;10.40;99.90;;;;;;5229481;28;20554;-49
2023/10/16 15:22:44;;;;;;;4.13;3.13;;;10.10;99.90;;;;;;5224329;28;20178;-49
2023/10/16 15:25:16;;;;;;;1.83;1.03;;;10.10;99.90;;;;;;5243714;28;20440;-48
2023/10/16 15:27:47;;;;;;;0.87;0.87;;;9.90;99.90;;;;;;5239763;28;20186;-50
2023/10/16 15:30:18;;;;;;;0.90;0.90;;;9.90;99.90;;;;;;5222565;28;20983;-49
2023/10/16 15:32:49;;;;;;;2.30;2.10;;;9.80;99.90;;;;;;5226234;28;20281;-50
2023/10/16 15:35:20;;;;;;;2.87;2.17;;;9.90;99.90;;;;;;5247465;28;20512;-50
2023/10/16 15:37:50;;;;;;;1.63;1.40;;;9.70;99.90;;;;;;5215452;28;20171;-50
2023/10/16 15:40:23;;;;;;;2.63;1.80;;;9.70;99.90;;;;;;5241813;28;20443;-50
2023/10/16 15:42:57;;;;;;;4.20;1.20;;;9.60;99.90;;;;;;5245330;28;20173;-48
2023/10/16 15:45:34;;;;;;;3.00;1.57;;;9.50;99.90;;;;;;5253756;28;20443;-49
2023/10/16 15:48:06;;;;;;;3.20;1.40;;;9.40;99.90;;;;;;5223655;28;20536;-49